sensor_id;sensor_type;location;lat;lon;timestamp;P1;durP1;ratioP1;P2;durP2;ratioP2
9288;SDS011;4683;50.864;12.086;2022-07-21T00:00:19;9.03;;;7.77;;
9288;SDS011;4683;50.864;12.086;2022-07-21T00:02:50;11.43;;;8.67;;
9288;SDS011;4683;50.864;12.086;2022-07-21T00:05:21;9.73;;;8.10;;
9288;SDS011;4683;50.864;12.086;2022-07-21T00:08:00;10.37;;;9.33;;
9288;SDS011;4683;50.864;12.086;2022-07-21T00:10:30;10.70;;;9.53;;
9288;SDS011;4683;50.864;12.086;2022-07-21T00:13:00;13.27;;;9.67;;
9288;SDS011;4683;50.864;12.086;2022-07-21T00:15:32;10.37;;;9.37;;
9288;SDS011;4683;50.864;12.086;2022-07-21T00:18:00;12.77;;;9.23;;
9288;SDS011;4683;50.864;12.086;2022-07-21T00:20:30;10.60;;;8.83;;
9288;SDS011;4683;50.864;12.086;2022-07-21T00:23:06;9.97;;;8.97;;
9288;SDS011;4683;50.864;12.086;2022-07-21T00:25:35;9.10;;;8.17;;
9288;SDS011;4683;50.864;12.086;2022-07-21T00:28:08;9.57;;;8.57;;
9288;SDS011;4683;50.864;12.086;2022-07-21T00:30:42;9.30;;;8.50;;
9288;SDS011;4683;50.864;12.086;2022-07-21T00:33:15;10.17;;;8.33;;
9288;SDS011;4683;50.864;12.086;2022-07-21T00:35:43;8.50;;;7.70;;
9288;SDS011;4683;50.864;12.086;2022-07-21T00:38:12;9.20;;;8.40;;
9288;SDS011;4683;50.864;12.086;2022-07-21T00:40:43;9.43;;;7.57;;
9288;SDS011;4683;50.864;12.086;2022-07-21T00:43:14;9.00;;;8.10;;
9288;SDS011;4683;50.864;12.086;2022-07-21T00:45:43;10.23;;;7.97;;
9288;SDS011;4683;50.864;12.086;2022-07-21T00:48:12;8.67;;;7.50;;
9288;SDS011;4683;50.864;12.086;2022-07-21T00:50:42;9.47;;;7.73;;
9288;SDS011;4683;50.864;12.086;2022-07-21T00:53:11;10.30;;;7.93;;
9288;SDS011;4683;50.864;12.086;2022-07-21T00:55:41;8.77;;;7.80;;
9288;SDS011;4683;50.864;12.086;2022-07-21T00:58:14;9.60;;;8.40;;
9288;SDS011;4683;50.864;12.086;2022-07-21T01:00:45;7.93;;;7.23;;
9288;SDS011;4683;50.864;12.086;2022-07-21T01:03:14;8.40;;;7.53;;
9288;SDS011;4683;50.864;12.086;2022-07-21T01:05:43;8.60;;;7.70;;
9288;SDS011;4683;50.864;12.086;2022-07-21T01:08:15;8.53;;;7.33;;
9288;SDS011;4683;50.864;12.086;2022-07-21T01:14:53;9.97;;;7.30;;
9288;SDS011;4683;50.864;12.086;2022-07-21T01:17:41;8.43;;;7.60;;
9288;SDS011;4683;50.864;12.086;2022-07-21T01:20:32;10.40;;;7.60;;
9288;SDS011;4683;50.864;12.086;2022-07-21T01:23:04;8.57;;;7.33;;
9288;SDS011;4683;50.864;12.086;2022-07-21T01:25:36;7.77;;;7.07;;
9288;SDS011;4683;50.864;12.086;2022-07-21T01:28:05;7.47;;;6.67;;
9288;SDS011;4683;50.864;12.086;2022-07-21T01:30:35;7.97;;;7.27;;
9288;SDS011;4683;50.864;12.086;2022-07-21T01:33:07;7.97;;;7.17;;
9288;SDS011;4683;50.864;12.086;2022-07-21T01:35:44;7.73;;;7.03;;
9288;SDS011;4683;50.864;12.086;2022-07-21T01:38:24;7.70;;;7.00;;
9288;SDS011;4683;50.864;12.086;2022-07-21T01:41:31;7.83;;;6.97;;
9288;SDS011;4683;50.864;12.086;2022-07-21T01:44:20;7.83;;;6.67;;
9288;SDS011;4683;50.864;12.086;2022-07-21T01:46:50;8.00;;;7.20;;
9288;SDS011;4683;50.864;12.086;2022-07-21T01:49:19;8.30;;;6.40;;
9288;SDS011;4683;50.864;12.086;2022-07-21T01:51:51;7.43;;;6.83;;
9288;SDS011;4683;50.864;12.086;2022-07-21T01:54:35;7.53;;;6.83;;
9288;SDS011;4683;50.864;12.086;2022-07-21T01:57:04;7.80;;;7.07;;
9288;SDS011;4683;50.864;12.086;2022-07-21T01:59:32;7.17;;;6.57;;
9288;SDS011;4683;50.864;12.086;2022-07-21T02:02:00;7.57;;;6.60;;
9288;SDS011;4683;50.864;12.086;2022-07-21T02:04:29;7.63;;;6.43;;
9288;SDS011;4683;50.864;12.086;2022-07-21T02:07:00;7.80;;;7.00;;
9288;SDS011;4683;50.864;12.086;2022-07-21T02:09:29;7.00;;;6.30;;
9288;SDS011;4683;50.864;12.086;2022-07-21T02:11:59;8.87;;;7.00;;
9288;SDS011;4683;50.864;12.086;2022-07-21T02:14:27;8.20;;;6.60;;
9288;SDS011;4683;50.864;12.086;2022-07-21T02:16:56;7.10;;;6.50;;
9288;SDS011;4683;50.864;12.086;2022-07-21T02:19:25;7.00;;;6.30;;
9288;SDS011;4683;50.864;12.086;2022-07-21T02:21:53;8.47;;;6.90;;
9288;SDS011;4683;50.864;12.086;2022-07-21T02:24:22;8.63;;;6.87;;
9288;SDS011;4683;50.864;12.086;2022-07-21T02:26:50;6.83;;;6.23;;
9288;SDS011;4683;50.864;12.086;2022-07-21T02:29:20;7.17;;;6.57;;
9288;SDS011;4683;50.864;12.086;2022-07-21T02:31:50;7.40;;;6.60;;
9288;SDS011;4683;50.864;12.086;2022-07-21T02:34:19;7.90;;;6.63;;
9288;SDS011;4683;50.864;12.086;2022-07-21T02:36:47;7.70;;;6.60;;
9288;SDS011;4683;50.864;12.086;2022-07-21T02:39:16;7.40;;;6.47;;
9288;SDS011;4683;50.864;12.086;2022-07-21T02:41:44;7.30;;;6.47;;
9288;SDS011;4683;50.864;12.086;2022-07-21T02:44:15;6.73;;;6.13;;
9288;SDS011;4683;50.864;12.086;2022-07-21T02:46:45;7.37;;;6.67;;
9288;SDS011;4683;50.864;12.086;2022-07-21T02:49:14;6.80;;;6.20;;
9288;SDS011;4683;50.864;12.086;2022-07-21T02:51:42;8.53;;;6.57;;
9288;SDS011;4683;50.864;12.086;2022-07-21T02:54:11;10.57;;;6.53;;
9288;SDS011;4683;50.864;12.086;2022-07-21T02:56:39;7.50;;;5.97;;
9288;SDS011;4683;50.864;12.086;2022-07-21T02:59:07;6.63;;;6.03;;
9288;SDS011;4683;50.864;12.086;2022-07-21T03:01:36;5.90;;;5.40;;
9288;SDS011;4683;50.864;12.086;2022-07-21T03:04:05;6.50;;;5.90;;
9288;SDS011;4683;50.864;12.086;2022-07-21T03:06:35;7.03;;;6.33;;
9288;SDS011;4683;50.864;12.086;2022-07-21T03:11:51;7.83;;;7.03;;
9288;SDS011;4683;50.864;12.086;2022-07-21T03:14:20;7.00;;;6.27;;
9288;SDS011;4683;50.864;12.086;2022-07-21T03:16:49;7.30;;;6.70;;
9288;SDS011;4683;50.864;12.086;2022-07-21T03:19:19;6.37;;;5.73;;
9288;SDS011;4683;50.864;12.086;2022-07-21T03:21:50;6.73;;;6.03;;
9288;SDS011;4683;50.864;12.086;2022-07-21T03:24:19;6.73;;;5.83;;
9288;SDS011;4683;50.864;12.086;2022-07-21T03:26:47;6.20;;;5.63;;
9288;SDS011;4683;50.864;12.086;2022-07-21T03:29:16;7.20;;;6.40;;
9288;SDS011;4683;50.864;12.086;2022-07-21T03:31:45;7.83;;;7.17;;
9288;SDS011;4683;50.864;12.086;2022-07-21T03:34:14;6.97;;;6.23;;
9288;SDS011;4683;50.864;12.086;2022-07-21T03:36:43;7.33;;;6.50;;
9288;SDS011;4683;50.864;12.086;2022-07-21T03:39:12;7.33;;;6.73;;
9288;SDS011;4683;50.864;12.086;2022-07-21T03:41:40;7.13;;;6.57;;
9288;SDS011;4683;50.864;12.086;2022-07-21T03:44:09;8.00;;;6.67;;
9288;SDS011;4683;50.864;12.086;2022-07-21T03:46:37;7.40;;;6.70;;
9288;SDS011;4683;50.864;12.086;2022-07-21T03:49:08;8.10;;;7.17;;
9288;SDS011;4683;50.864;12.086;2022-07-21T03:51:37;7.43;;;6.83;;
9288;SDS011;4683;50.864;12.086;2022-07-21T03:54:07;8.20;;;7.40;;
9288;SDS011;4683;50.864;12.086;2022-07-21T03:56:37;7.67;;;6.80;;
9288;SDS011;4683;50.864;12.086;2022-07-21T03:59:05;7.40;;;6.70;;
9288;SDS011;4683;50.864;12.086;2022-07-21T04:01:34;7.37;;;6.57;;
9288;SDS011;4683;50.864;12.086;2022-07-21T04:04:03;6.73;;;6.10;;
9288;SDS011;4683;50.864;12.086;2022-07-21T04:06:32;6.37;;;5.77;;
9288;SDS011;4683;50.864;12.086;2022-07-21T04:09:05;7.83;;;6.33;;
9288;SDS011;4683;50.864;12.086;2022-07-21T04:11:35;6.37;;;5.80;;
9288;SDS011;4683;50.864;12.086;2022-07-21T04:14:03;6.87;;;6.37;;
9288;SDS011;4683;50.864;12.086;2022-07-21T04:16:32;6.47;;;5.87;;
9288;SDS011;4683;50.864;12.086;2022-07-21T04:19:01;6.80;;;6.10;;
9288;SDS011;4683;50.864;12.086;2022-07-21T04:21:29;6.33;;;5.73;;
9288;SDS011;4683;50.864;12.086;2022-07-21T04:23:57;6.80;;;5.53;;
9288;SDS011;4683;50.864;12.086;2022-07-21T04:26:27;6.97;;;5.87;;
9288;SDS011;4683;50.864;12.086;2022-07-21T04:28:55;7.17;;;5.37;;
9288;SDS011;4683;50.864;12.086;2022-07-21T04:31:24;7.53;;;6.83;;
9288;SDS011;4683;50.864;12.086;2022-07-21T04:33:52;6.87;;;6.17;;
9288;SDS011;4683;50.864;12.086;2022-07-21T04:36:20;8.13;;;6.10;;
9288;SDS011;4683;50.864;12.086;2022-07-21T04:38:49;6.07;;;5.57;;
9288;SDS011;4683;50.864;12.086;2022-07-21T04:41:17;7.27;;;6.57;;
9288;SDS011;4683;50.864;12.086;2022-07-21T04:43:47;6.40;;;5.90;;
9288;SDS011;4683;50.864;12.086;2022-07-21T04:46:16;6.67;;;6.07;;
9288;SDS011;4683;50.864;12.086;2022-07-21T04:48:44;6.60;;;6.00;;
9288;SDS011;4683;50.864;12.086;2022-07-21T04:51:13;6.77;;;6.17;;
9288;SDS011;4683;50.864;12.086;2022-07-21T04:53:41;23.83;;;9.77;;
9288;SDS011;4683;50.864;12.086;2022-07-21T04:56:09;7.67;;;6.57;;
9288;SDS011;4683;50.864;12.086;2022-07-21T04:58:38;6.27;;;5.67;;
9288;SDS011;4683;50.864;12.086;2022-07-21T05:01:08;9.50;;;6.43;;
9288;SDS011;4683;50.864;12.086;2022-07-21T05:03:37;6.97;;;6.23;;
9288;SDS011;4683;50.864;12.086;2022-07-21T05:06:05;8.17;;;6.47;;
9288;SDS011;4683;50.864;12.086;2022-07-21T05:08:35;6.33;;;5.60;;
9288;SDS011;4683;50.864;12.086;2022-07-21T05:11:05;6.67;;;5.97;;
9288;SDS011;4683;50.864;12.086;2022-07-21T05:13:35;6.43;;;5.60;;
9288;SDS011;4683;50.864;12.086;2022-07-21T05:16:04;7.23;;;6.03;;
9288;SDS011;4683;50.864;12.086;2022-07-21T05:18:34;8.47;;;6.13;;
9288;SDS011;4683;50.864;12.086;2022-07-21T05:21:02;6.97;;;6.37;;
9288;SDS011;4683;50.864;12.086;2022-07-21T05:23:30;8.67;;;6.47;;
9288;SDS011;4683;50.864;12.086;2022-07-21T05:25:59;7.73;;;6.60;;
9288;SDS011;4683;50.864;12.086;2022-07-21T05:28:27;7.57;;;6.77;;
9288;SDS011;4683;50.864;12.086;2022-07-21T05:30:59;7.30;;;6.43;;
9288;SDS011;4683;50.864;12.086;2022-07-21T05:37:30;7.70;;;6.90;;
9288;SDS011;4683;50.864;12.086;2022-07-21T05:39:58;6.97;;;6.33;;
9288;SDS011;4683;50.864;12.086;2022-07-21T05:42:28;8.73;;;6.57;;
9288;SDS011;4683;50.864;12.086;2022-07-21T05:44:57;9.33;;;7.07;;
9288;SDS011;4683;50.864;12.086;2022-07-21T05:47:25;7.97;;;7.03;;
9288;SDS011;4683;50.864;12.086;2022-07-21T05:49:55;10.03;;;7.20;;
9288;SDS011;4683;50.864;12.086;2022-07-21T05:52:24;7.47;;;6.93;;
9288;SDS011;4683;50.864;12.086;2022-07-21T05:54:52;7.13;;;6.53;;
9288;SDS011;4683;50.864;12.086;2022-07-21T05:57:21;9.77;;;6.87;;
9288;SDS011;4683;50.864;12.086;2022-07-21T05:59:50;8.63;;;7.33;;
9288;SDS011;4683;50.864;12.086;2022-07-21T06:02:19;8.40;;;7.50;;
9288;SDS011;4683;50.864;12.086;2022-07-21T06:04:47;8.93;;;7.73;;
9288;SDS011;4683;50.864;12.086;2022-07-21T06:07:17;7.83;;;7.23;;
9288;SDS011;4683;50.864;12.086;2022-07-21T06:09:45;8.63;;;7.43;;
9288;SDS011;4683;50.864;12.086;2022-07-21T06:12:14;11.93;;;8.30;;
9288;SDS011;4683;50.864;12.086;2022-07-21T06:14:42;9.17;;;7.70;;
9288;SDS011;4683;50.864;12.086;2022-07-21T06:17:10;10.00;;;8.43;;
9288;SDS011;4683;50.864;12.086;2022-07-21T06:19:39;7.83;;;7.10;;
9288;SDS011;4683;50.864;12.086;2022-07-21T06:22:07;7.87;;;7.17;;
9288;SDS011;4683;50.864;12.086;2022-07-21T06:24:37;8.07;;;7.27;;
9288;SDS011;4683;50.864;12.086;2022-07-21T06:27:08;11.53;;;7.57;;
9288;SDS011;4683;50.864;12.086;2022-07-21T06:29:37;8.27;;;7.57;;
9288;SDS011;4683;50.864;12.086;2022-07-21T06:32:05;9.53;;;7.90;;
9288;SDS011;4683;50.864;12.086;2022-07-21T06:34:34;9.83;;;8.60;;
9288;SDS011;4683;50.864;12.086;2022-07-21T06:37:03;10.70;;;8.30;;
9288;SDS011;4683;50.864;12.086;2022-07-21T06:39:31;8.97;;;8.17;;
9288;SDS011;4683;50.864;12.086;2022-07-21T06:42:06;8.40;;;7.63;;
9288;SDS011;4683;50.864;12.086;2022-07-21T06:44:38;8.67;;;7.60;;
9288;SDS011;4683;50.864;12.086;2022-07-21T06:47:08;7.03;;;6.43;;
9288;SDS011;4683;50.864;12.086;2022-07-21T06:49:36;6.50;;;5.97;;
9288;SDS011;4683;50.864;12.086;2022-07-21T06:52:04;6.77;;;5.87;;
9288;SDS011;4683;50.864;12.086;2022-07-21T06:54:33;6.33;;;5.73;;
9288;SDS011;4683;50.864;12.086;2022-07-21T06:57:07;6.33;;;5.80;;
9288;SDS011;4683;50.864;12.086;2022-07-21T06:59:35;6.23;;;5.63;;
9288;SDS011;4683;50.864;12.086;2022-07-21T07:02:04;5.60;;;5.10;;
9288;SDS011;4683;50.864;12.086;2022-07-21T07:04:32;5.80;;;5.30;;
9288;SDS011;4683;50.864;12.086;2022-07-21T07:07:00;8.00;;;6.10;;
9288;SDS011;4683;50.864;12.086;2022-07-21T07:09:29;5.37;;;4.87;;
9288;SDS011;4683;50.864;12.086;2022-07-21T07:11:58;6.00;;;5.50;;
9288;SDS011;4683;50.864;12.086;2022-07-21T07:14:34;5.70;;;5.30;;
9288;SDS011;4683;50.864;12.086;2022-07-21T07:17:03;5.73;;;4.67;;
9288;SDS011;4683;50.864;12.086;2022-07-21T07:19:32;5.30;;;4.77;;
9288;SDS011;4683;50.864;12.086;2022-07-21T07:22:00;5.37;;;4.87;;
9288;SDS011;4683;50.864;12.086;2022-07-21T07:24:29;7.13;;;5.57;;
9288;SDS011;4683;50.864;12.086;2022-07-21T07:26:57;9.03;;;5.40;;
9288;SDS011;4683;50.864;12.086;2022-07-21T07:29:27;7.17;;;5.50;;
9288;SDS011;4683;50.864;12.086;2022-07-21T07:31:59;5.83;;;4.93;;
9288;SDS011;4683;50.864;12.086;2022-07-21T07:34:31;7.03;;;5.13;;
9288;SDS011;4683;50.864;12.086;2022-07-21T07:36:59;5.50;;;5.00;;
9288;SDS011;4683;50.864;12.086;2022-07-21T07:39:29;5.80;;;5.20;;
9288;SDS011;4683;50.864;12.086;2022-07-21T07:41:57;5.80;;;5.30;;
9288;SDS011;4683;50.864;12.086;2022-07-21T07:44:27;5.97;;;5.37;;
9288;SDS011;4683;50.864;12.086;2022-07-21T07:46:57;6.10;;;5.60;;
9288;SDS011;4683;50.864;12.086;2022-07-21T07:49:30;7.33;;;5.70;;
9288;SDS011;4683;50.864;12.086;2022-07-21T07:51:59;6.70;;;6.10;;
9288;SDS011;4683;50.864;12.086;2022-07-21T07:54:30;8.33;;;6.27;;
9288;SDS011;4683;50.864;12.086;2022-07-21T07:56:58;6.40;;;5.73;;
9288;SDS011;4683;50.864;12.086;2022-07-21T07:59:26;7.20;;;6.33;;
9288;SDS011;4683;50.864;12.086;2022-07-21T08:01:55;6.37;;;5.77;;
9288;SDS011;4683;50.864;12.086;2022-07-21T08:04:24;6.30;;;5.80;;
9288;SDS011;4683;50.864;12.086;2022-07-21T08:06:53;6.70;;;6.07;;
9288;SDS011;4683;50.864;12.086;2022-07-21T08:09:22;6.70;;;6.10;;
9288;SDS011;4683;50.864;12.086;2022-07-21T08:11:51;6.43;;;5.83;;
9288;SDS011;4683;50.864;12.086;2022-07-21T08:14:19;7.43;;;6.77;;
9288;SDS011;4683;50.864;12.086;2022-07-21T08:16:49;6.83;;;6.23;;
9288;SDS011;4683;50.864;12.086;2022-07-21T08:19:17;7.80;;;6.60;;
9288;SDS011;4683;50.864;12.086;2022-07-21T08:21:47;6.90;;;6.30;;
9288;SDS011;4683;50.864;12.086;2022-07-21T08:24:15;7.60;;;6.93;;
9288;SDS011;4683;50.864;12.086;2022-07-21T08:26:44;7.60;;;7.00;;
9288;SDS011;4683;50.864;12.086;2022-07-21T08:29:12;8.60;;;7.67;;
9288;SDS011;4683;50.864;12.086;2022-07-21T08:31:41;8.33;;;7.30;;
9288;SDS011;4683;50.864;12.086;2022-07-21T08:34:09;9.00;;;7.07;;
9288;SDS011;4683;50.864;12.086;2022-07-21T08:36:38;7.83;;;7.07;;
9288;SDS011;4683;50.864;12.086;2022-07-21T08:39:08;8.80;;;8.07;;
9288;SDS011;4683;50.864;12.086;2022-07-21T08:41:37;8.40;;;7.67;;
9288;SDS011;4683;50.864;12.086;2022-07-21T08:44:07;8.87;;;7.97;;
9288;SDS011;4683;50.864;12.086;2022-07-21T08:46:37;9.37;;;8.57;;
9288;SDS011;4683;50.864;12.086;2022-07-21T08:49:08;8.77;;;8.07;;
9288;SDS011;4683;50.864;12.086;2022-07-21T08:51:37;8.80;;;8.07;;
9288;SDS011;4683;50.864;12.086;2022-07-21T08:54:06;9.27;;;8.57;;
9288;SDS011;4683;50.864;12.086;2022-07-21T08:56:36;9.33;;;8.53;;
9288;SDS011;4683;50.864;12.086;2022-07-21T08:59:04;9.20;;;8.40;;
9288;SDS011;4683;50.864;12.086;2022-07-21T09:01:33;9.07;;;8.13;;
9288;SDS011;4683;50.864;12.086;2022-07-21T09:04:22;8.77;;;8.03;;
9288;SDS011;4683;50.864;12.086;2022-07-21T09:06:55;8.77;;;7.97;;
9288;SDS011;4683;50.864;12.086;2022-07-21T09:09:32;9.30;;;8.50;;
9288;SDS011;4683;50.864;12.086;2022-07-21T09:12:03;9.17;;;8.37;;
9288;SDS011;4683;50.864;12.086;2022-07-21T09:14:34;9.73;;;8.93;;
9288;SDS011;4683;50.864;12.086;2022-07-21T09:17:03;8.93;;;8.23;;
9288;SDS011;4683;50.864;12.086;2022-07-21T09:19:34;8.93;;;8.20;;
9288;SDS011;4683;50.864;12.086;2022-07-21T09:22:06;9.43;;;8.57;;
9288;SDS011;4683;50.864;12.086;2022-07-21T09:24:49;10.67;;;9.87;;
9288;SDS011;4683;50.864;12.086;2022-07-21T09:27:20;10.43;;;9.37;;
9288;SDS011;4683;50.864;12.086;2022-07-21T09:29:50;9.70;;;9.00;;
9288;SDS011;4683;50.864;12.086;2022-07-21T09:32:22;9.30;;;8.53;;
9288;SDS011;4683;50.864;12.086;2022-07-21T09:34:53;10.67;;;9.57;;
9288;SDS011;4683;50.864;12.086;2022-07-21T09:37:27;10.20;;;9.40;;
9288;SDS011;4683;50.864;12.086;2022-07-21T09:39:58;10.57;;;9.57;;
9288;SDS011;4683;50.864;12.086;2022-07-21T09:42:32;10.03;;;9.17;;
9288;SDS011;4683;50.864;12.086;2022-07-21T09:45:03;9.90;;;8.93;;
9288;SDS011;4683;50.864;12.086;2022-07-21T09:47:34;10.47;;;9.57;;
9288;SDS011;4683;50.864;12.086;2022-07-21T09:50:05;11.00;;;9.97;;
9288;SDS011;4683;50.864;12.086;2022-07-21T09:52:37;10.37;;;9.50;;
9288;SDS011;4683;50.864;12.086;2022-07-21T09:55:14;10.53;;;9.53;;
9288;SDS011;4683;50.864;12.086;2022-07-21T09:57:45;10.43;;;9.60;;
9288;SDS011;4683;50.864;12.086;2022-07-21T10:00:14;10.43;;;9.43;;
9288;SDS011;4683;50.864;12.086;2022-07-21T10:02:46;10.97;;;9.97;;
9288;SDS011;4683;50.864;12.086;2022-07-21T10:05:16;11.40;;;10.33;;
9288;SDS011;4683;50.864;12.086;2022-07-21T10:07:49;10.83;;;9.97;;
9288;SDS011;4683;50.864;12.086;2022-07-21T10:10:19;10.73;;;9.83;;
9288;SDS011;4683;50.864;12.086;2022-07-21T10:12:47;10.33;;;9.43;;
9288;SDS011;4683;50.864;12.086;2022-07-21T10:15:16;10.40;;;9.50;;
9288;SDS011;4683;50.864;12.086;2022-07-21T10:17:45;10.67;;;9.77;;
9288;SDS011;4683;50.864;12.086;2022-07-21T10:20:26;9.80;;;9.00;;
9288;SDS011;4683;50.864;12.086;2022-07-21T10:23:06;8.93;;;8.23;;
9288;SDS011;4683;50.864;12.086;2022-07-21T10:25:43;10.00;;;9.20;;
9288;SDS011;4683;50.864;12.086;2022-07-21T10:28:14;10.73;;;9.73;;
9288;SDS011;4683;50.864;12.086;2022-07-21T10:30:48;9.73;;;8.93;;
9288;SDS011;4683;50.864;12.086;2022-07-21T10:33:20;10.10;;;9.30;;
9288;SDS011;4683;50.864;12.086;2022-07-21T10:36:09;10.53;;;9.63;;
9288;SDS011;4683;50.864;12.086;2022-07-21T10:39:12;10.70;;;9.90;;
9288;SDS011;4683;50.864;12.086;2022-07-21T10:41:54;9.97;;;9.27;;
9288;SDS011;4683;50.864;12.086;2022-07-21T10:47:22;10.73;;;9.93;;
9288;SDS011;4683;50.864;12.086;2022-07-21T10:49:56;11.33;;;10.27;;
9288;SDS011;4683;50.864;12.086;2022-07-21T10:55:38;10.53;;;9.63;;
9288;SDS011;4683;50.864;12.086;2022-07-21T10:58:17;10.60;;;9.70;;
9288;SDS011;4683;50.864;12.086;2022-07-21T11:00:53;9.67;;;8.97;;
9288;SDS011;4683;50.864;12.086;2022-07-21T11:03:24;11.57;;;10.23;;
9288;SDS011;4683;50.864;12.086;2022-07-21T11:08:54;10.83;;;9.97;;
9288;SDS011;4683;50.864;12.086;2022-07-21T11:11:39;10.23;;;9.33;;
9288;SDS011;4683;50.864;12.086;2022-07-21T11:14:36;9.73;;;8.93;;
9288;SDS011;4683;50.864;12.086;2022-07-21T11:17:07;11.43;;;10.33;;
9288;SDS011;4683;50.864;12.086;2022-07-21T11:19:39;10.87;;;9.90;;
9288;SDS011;4683;50.864;12.086;2022-07-21T11:22:14;11.77;;;10.67;;
9288;SDS011;4683;50.864;12.086;2022-07-21T11:24:46;10.93;;;10.13;;
9288;SDS011;4683;50.864;12.086;2022-07-21T11:27:19;10.20;;;9.40;;
9288;SDS011;4683;50.864;12.086;2022-07-21T11:29:56;11.13;;;10.23;;
9288;SDS011;4683;50.864;12.086;2022-07-21T11:32:27;12.20;;;10.73;;
9288;SDS011;4683;50.864;12.086;2022-07-21T11:34:56;10.60;;;9.70;;
9288;SDS011;4683;50.864;12.086;2022-07-21T11:37:27;10.07;;;9.17;;
9288;SDS011;4683;50.864;12.086;2022-07-21T11:40:10;11.40;;;10.50;;
9288;SDS011;4683;50.864;12.086;2022-07-21T11:42:47;9.97;;;9.20;;
9288;SDS011;4683;50.864;12.086;2022-07-21T11:45:22;10.73;;;9.87;;
9288;SDS011;4683;50.864;12.086;2022-07-21T11:47:54;10.37;;;9.40;;
9288;SDS011;4683;50.864;12.086;2022-07-21T11:50:24;10.50;;;9.60;;
9288;SDS011;4683;50.864;12.086;2022-07-21T11:52:54;10.00;;;9.10;;
9288;SDS011;4683;50.864;12.086;2022-07-21T11:55:26;9.60;;;8.70;;
9288;SDS011;4683;50.864;12.086;2022-07-21T11:57:57;10.50;;;9.53;;
9288;SDS011;4683;50.864;12.086;2022-07-21T12:00:28;10.23;;;9.40;;
9288;SDS011;4683;50.864;12.086;2022-07-21T12:03:03;10.43;;;9.50;;
9288;SDS011;4683;50.864;12.086;2022-07-21T12:05:34;10.50;;;9.50;;
9288;SDS011;4683;50.864;12.086;2022-07-21T12:08:05;9.57;;;8.77;;
9288;SDS011;4683;50.864;12.086;2022-07-21T12:10:33;9.57;;;8.87;;
9288;SDS011;4683;50.864;12.086;2022-07-21T12:13:04;9.10;;;8.40;;
9288;SDS011;4683;50.864;12.086;2022-07-21T12:15:35;9.13;;;8.33;;
9288;SDS011;4683;50.864;12.086;2022-07-21T12:18:07;9.10;;;8.30;;
9288;SDS011;4683;50.864;12.086;2022-07-21T12:20:48;8.27;;;7.57;;
9288;SDS011;4683;50.864;12.086;2022-07-21T12:23:20;9.60;;;8.67;;
9288;SDS011;4683;50.864;12.086;2022-07-21T12:25:51;8.20;;;7.60;;
9288;SDS011;4683;50.864;12.086;2022-07-21T12:31:14;7.70;;;7.00;;
9288;SDS011;4683;50.864;12.086;2022-07-21T12:33:46;8.13;;;7.53;;
9288;SDS011;4683;50.864;12.086;2022-07-21T12:36:15;7.87;;;7.17;;
9288;SDS011;4683;50.864;12.086;2022-07-21T12:38:47;7.87;;;7.20;;
9288;SDS011;4683;50.864;12.086;2022-07-21T12:41:19;7.30;;;6.70;;
9288;SDS011;4683;50.864;12.086;2022-07-21T12:43:53;7.13;;;6.63;;
9288;SDS011;4683;50.864;12.086;2022-07-21T12:46:27;6.03;;;5.53;;
9288;SDS011;4683;50.864;12.086;2022-07-21T12:49:02;6.43;;;5.83;;
9288;SDS011;4683;50.864;12.086;2022-07-21T12:51:32;5.70;;;5.30;;
9288;SDS011;4683;50.864;12.086;2022-07-21T12:54:04;6.00;;;5.00;;
9288;SDS011;4683;50.864;12.086;2022-07-21T12:56:37;6.13;;;5.63;;
9288;SDS011;4683;50.864;12.086;2022-07-21T12:59:05;5.80;;;5.30;;
9288;SDS011;4683;50.864;12.086;2022-07-21T13:01:36;5.50;;;5.00;;
9288;SDS011;4683;50.864;12.086;2022-07-21T13:04:04;5.80;;;5.30;;
9288;SDS011;4683;50.864;12.086;2022-07-21T13:06:33;5.33;;;4.83;;
9288;SDS011;4683;50.864;12.086;2022-07-21T13:09:04;6.10;;;5.57;;
9288;SDS011;4683;50.864;12.086;2022-07-21T13:11:33;5.20;;;4.80;;
9288;SDS011;4683;50.864;12.086;2022-07-21T13:14:02;5.47;;;5.07;;
9288;SDS011;4683;50.864;12.086;2022-07-21T13:16:30;4.90;;;4.60;;
9288;SDS011;4683;50.864;12.086;2022-07-21T13:19:03;4.90;;;4.60;;
9288;SDS011;4683;50.864;12.086;2022-07-21T13:21:33;4.90;;;4.60;;
9288;SDS011;4683;50.864;12.086;2022-07-21T13:24:09;4.63;;;4.23;;
9288;SDS011;4683;50.864;12.086;2022-07-21T13:26:38;4.23;;;3.93;;
9288;SDS011;4683;50.864;12.086;2022-07-21T13:29:07;5.47;;;4.97;;
9288;SDS011;4683;50.864;12.086;2022-07-21T13:31:35;5.43;;;4.70;;
9288;SDS011;4683;50.864;12.086;2022-07-21T13:34:05;4.87;;;4.40;;
9288;SDS011;4683;50.864;12.086;2022-07-21T13:36:38;4.47;;;4.03;;
9288;SDS011;4683;50.864;12.086;2022-07-21T13:39:14;3.90;;;3.60;;
9288;SDS011;4683;50.864;12.086;2022-07-21T13:41:43;3.30;;;3.10;;
9288;SDS011;4683;50.864;12.086;2022-07-21T13:44:11;3.50;;;3.20;;
9288;SDS011;4683;50.864;12.086;2022-07-21T13:46:39;3.77;;;3.50;;
9288;SDS011;4683;50.864;12.086;2022-07-21T13:49:09;3.53;;;3.30;;
9288;SDS011;4683;50.864;12.086;2022-07-21T13:51:38;4.40;;;3.80;;
9288;SDS011;4683;50.864;12.086;2022-07-21T13:54:08;3.60;;;3.30;;
9288;SDS011;4683;50.864;12.086;2022-07-21T13:56:36;4.37;;;3.90;;
9288;SDS011;4683;50.864;12.086;2022-07-21T13:59:05;4.20;;;3.90;;
9288;SDS011;4683;50.864;12.086;2022-07-21T14:01:33;3.90;;;3.60;;
9288;SDS011;4683;50.864;12.086;2022-07-21T14:04:03;3.80;;;3.50;;
9288;SDS011;4683;50.864;12.086;2022-07-21T14:06:34;6.47;;;4.40;;
9288;SDS011;4683;50.864;12.086;2022-07-21T14:09:03;4.53;;;3.20;;
9288;SDS011;4683;50.864;12.086;2022-07-21T14:11:32;3.60;;;3.30;;
9288;SDS011;4683;50.864;12.086;2022-07-21T14:14:01;3.47;;;3.27;;
9288;SDS011;4683;50.864;12.086;2022-07-21T14:16:31;4.23;;;3.30;;
9288;SDS011;4683;50.864;12.086;2022-07-21T14:18:59;3.27;;;2.97;;
9288;SDS011;4683;50.864;12.086;2022-07-21T14:21:29;4.20;;;3.33;;
9288;SDS011;4683;50.864;12.086;2022-07-21T14:23:59;3.30;;;3.10;;
9288;SDS011;4683;50.864;12.086;2022-07-21T14:26:45;3.47;;;3.17;;
9288;SDS011;4683;50.864;12.086;2022-07-21T14:29:13;4.33;;;3.23;;
9288;SDS011;4683;50.864;12.086;2022-07-21T14:31:44;2.80;;;2.53;;
9288;SDS011;4683;50.864;12.086;2022-07-21T14:34:14;3.20;;;2.90;;
9288;SDS011;4683;50.864;12.086;2022-07-21T14:36:43;3.83;;;3.53;;
9288;SDS011;4683;50.864;12.086;2022-07-21T14:39:14;3.40;;;3.10;;
9288;SDS011;4683;50.864;12.086;2022-07-21T14:41:43;2.77;;;2.57;;
9288;SDS011;4683;50.864;12.086;2022-07-21T14:44:12;3.87;;;3.50;;
9288;SDS011;4683;50.864;12.086;2022-07-21T14:46:41;3.60;;;3.30;;
9288;SDS011;4683;50.864;12.086;2022-07-21T14:49:10;2.93;;;2.73;;
9288;SDS011;4683;50.864;12.086;2022-07-21T14:51:38;4.27;;;3.83;;
9288;SDS011;4683;50.864;12.086;2022-07-21T14:54:07;3.73;;;3.43;;
9288;SDS011;4683;50.864;12.086;2022-07-21T14:56:39;3.83;;;3.53;;
9288;SDS011;4683;50.864;12.086;2022-07-21T14:59:07;3.40;;;3.20;;
9288;SDS011;4683;50.864;12.086;2022-07-21T15:01:36;3.43;;;3.17;;
9288;SDS011;4683;50.864;12.086;2022-07-21T15:04:05;3.40;;;2.90;;
9288;SDS011;4683;50.864;12.086;2022-07-21T15:06:35;3.50;;;3.20;;
9288;SDS011;4683;50.864;12.086;2022-07-21T15:09:05;4.33;;;3.20;;
9288;SDS011;4683;50.864;12.086;2022-07-21T15:11:33;3.70;;;3.40;;
9288;SDS011;4683;50.864;12.086;2022-07-21T15:14:14;3.57;;;3.20;;
9288;SDS011;4683;50.864;12.086;2022-07-21T15:16:45;3.33;;;3.03;;
9288;SDS011;4683;50.864;12.086;2022-07-21T15:19:14;3.30;;;3.10;;
9288;SDS011;4683;50.864;12.086;2022-07-21T15:21:42;5.23;;;3.17;;
9288;SDS011;4683;50.864;12.086;2022-07-21T15:24:12;3.10;;;2.90;;
9288;SDS011;4683;50.864;12.086;2022-07-21T15:26:43;3.10;;;2.90;;
9288;SDS011;4683;50.864;12.086;2022-07-21T15:29:13;3.60;;;3.30;;
9288;SDS011;4683;50.864;12.086;2022-07-21T15:31:41;3.67;;;3.37;;
9288;SDS011;4683;50.864;12.086;2022-07-21T15:34:10;3.57;;;3.27;;
9288;SDS011;4683;50.864;12.086;2022-07-21T15:36:39;3.80;;;3.50;;
9288;SDS011;4683;50.864;12.086;2022-07-21T15:39:08;4.07;;;3.67;;
9288;SDS011;4683;50.864;12.086;2022-07-21T15:41:41;3.73;;;3.43;;